createdAt,value
2022-12-06T00:01:05.606Z,3.15
2022-12-06T00:03:32.371Z,3.15
2022-12-06T00:06:08.490Z,3.11
2022-12-06T00:08:35.742Z,3.10
2022-12-06T00:11:04.982Z,3.09
2022-12-06T00:13:31.644Z,3.09
2022-12-06T00:16:03.586Z,3.13
2022-12-06T00:18:32.065Z,3.05
2022-12-06T00:21:16.129Z,2.96
2022-12-06T00:23:45.712Z,3.06
2022-12-06T00:26:13.143Z,2.94
2022-12-06T00:28:40.030Z,3.03
2022-12-06T00:31:13.791Z,3.09
2022-12-06T00:33:40.891Z,3.12
2022-12-06T00:36:11.696Z,3.16
2022-12-06T00:38:38.526Z,3.17
2022-12-06T00:41:12.486Z,3.15
2022-12-06T00:43:40.023Z,3.12
2022-12-06T00:46:08.441Z,3.11
2022-12-06T00:48:35.204Z,3.08
2022-12-06T00:51:01.819Z,3.05
2022-12-06T00:53:28.795Z,3.07
2022-12-06T00:55:55.435Z,3.08
2022-12-06T00:58:23.121Z,3.12
2022-12-06T01:00:51.233Z,3.11
2022-12-06T01:03:17.950Z,3.11
2022-12-06T01:05:49.815Z,3.04
2022-12-06T01:08:17.610Z,3.08
2022-12-06T01:10:54.132Z,3.05
2022-12-06T01:13:21.084Z,3.06
2022-12-06T01:15:47.928Z,3.07
2022-12-06T01:18:14.684Z,3.11
2022-12-06T01:20:41.278Z,3.13
2022-12-06T01:23:07.970Z,3.09
2022-12-06T01:25:36.380Z,3.09
2022-12-06T01:28:03.844Z,3.16
2022-12-06T01:30:30.967Z,3.14
2022-12-06T01:32:57.599Z,3.15
2022-12-06T01:35:24.178Z,3.11
2022-12-06T01:37:50.808Z,3.09
2022-12-06T01:40:17.343Z,3.12
2022-12-06T01:42:43.953Z,3.12
2022-12-06T01:45:10.799Z,3.13
2022-12-06T01:47:43.089Z,3.14
2022-12-06T01:50:23.186Z,3.26
2022-12-06T01:53:25.283Z,3.26
2022-12-06T01:55:53.110Z,3.15
2022-12-06T01:58:25.180Z,3.15
2022-12-06T02:00:51.938Z,3.22
2022-12-06T02:03:22.617Z,3.23
2022-12-06T02:05:49.502Z,3.19
2022-12-06T02:08:17.576Z,3.20
2022-12-06T02:10:44.249Z,3.24
2022-12-06T02:13:11.194Z,3.23
2022-12-06T02:15:49.021Z,3.22
2022-12-06T02:18:42.632Z,3.18
2022-12-06T02:21:09.145Z,3.05
2022-12-06T02:23:58.107Z,3.07
2022-12-06T02:26:30.584Z,3.08
2022-12-06T02:29:00.143Z,3.10
2022-12-06T02:31:45.402Z,3.13
2022-12-06T02:34:18.534Z,3.15
2022-12-06T02:37:02.755Z,3.06
2022-12-06T02:40:07.520Z,3.07
2022-12-06T02:42:40.404Z,3.05
2022-12-06T02:45:19.183Z,3.02
2022-12-06T02:47:48.820Z,3.05
2022-12-06T02:50:22.602Z,3.03
2022-12-06T02:52:53.779Z,2.97
2022-12-06T02:55:23.614Z,3.02
2022-12-06T02:57:53.259Z,3.12
2022-12-06T03:00:28.992Z,3.15
2022-12-06T03:03:06.354Z,3.12
2022-12-06T03:05:41.264Z,3.25
2022-12-06T03:08:18.543Z,3.41
2022-12-06T03:10:50.721Z,3.52
2022-12-06T03:14:02.514Z,3.63
2022-12-06T03:16:34.899Z,3.56
2022-12-06T03:19:12.010Z,3.65
2022-12-06T03:21:50.617Z,3.62
2022-12-06T03:24:17.450Z,3.49
2022-12-06T03:26:48.298Z,3.54
2022-12-06T03:29:18.590Z,3.48
2022-12-06T03:31:46.895Z,3.53
2022-12-06T03:34:17.307Z,3.58
2022-12-06T03:36:46.557Z,3.50
2022-12-06T03:39:16.185Z,3.50
2022-12-06T03:41:48.453Z,3.57
2022-12-06T03:44:15.315Z,3.62
2022-12-06T03:46:48.671Z,3.43
2022-12-06T03:49:21.513Z,3.38
2022-12-06T03:51:48.486Z,3.39
2022-12-06T03:54:16.146Z,3.42
2022-12-06T03:56:42.872Z,3.51
2022-12-06T03:59:11.212Z,3.43
2022-12-06T04:01:38.944Z,3.39
2022-12-06T04:04:06.183Z,3.24
2022-12-06T04:06:33.225Z,3.18
2022-12-06T04:09:18.478Z,3.02
2022-12-06T04:11:45.584Z,3.02
2022-12-06T04:14:12.297Z,3.04
2022-12-06T04:16:57.112Z,3.03
2022-12-06T04:19:23.727Z,2.89
2022-12-06T04:22:08.647Z,2.96
2022-12-06T04:24:35.244Z,3.02
2022-12-06T04:27:20.768Z,3.11
2022-12-06T04:30:06.013Z,3.23
2022-12-06T04:32:51.245Z,3.26
2022-12-06T04:35:36.558Z,3.33
2022-12-06T04:38:21.888Z,3.21
2022-12-06T04:40:48.649Z,3.25
2022-12-06T04:43:33.924Z,3.39
2022-12-06T04:46:00.590Z,3.30
2022-12-06T04:48:27.176Z,3.23
2022-12-06T04:50:53.756Z,3.18
2022-12-06T04:53:20.284Z,3.18
2022-12-06T04:55:47.777Z,3.19
2022-12-06T04:58:15.711Z,3.20
2022-12-06T05:00:43.722Z,3.23
2022-12-06T05:03:11.770Z,3.21
2022-12-06T05:05:38.573Z,3.28
2022-12-06T05:08:05.598Z,3.31
2022-12-06T05:10:33.220Z,3.39
2022-12-06T05:13:00.564Z,3.42
2022-12-06T05:15:29.357Z,3.27
2022-12-06T05:17:56.224Z,3.23
2022-12-06T05:20:23.447Z,3.18
2022-12-06T05:22:50.333Z,3.29
2022-12-06T05:25:17.189Z,3.21
2022-12-06T05:27:44.754Z,3.20
2022-12-06T05:30:11.938Z,3.11
2022-12-06T05:32:40.108Z,3.06
2022-12-06T05:35:07.566Z,3.00
2022-12-06T05:37:34.119Z,3.11
2022-12-06T05:40:00.887Z,3.15
2022-12-06T05:42:27.720Z,3.11
2022-12-06T05:44:54.301Z,3.11
2022-12-06T05:47:21.020Z,3.11
2022-12-06T05:49:47.662Z,2.94
2022-12-06T05:52:14.360Z,2.91
2022-12-06T05:54:40.990Z,2.87
2022-12-06T05:57:07.590Z,2.87
2022-12-06T05:59:34.234Z,2.92
2022-12-06T06:02:01.089Z,2.83
2022-12-06T06:04:27.807Z,2.83
2022-12-06T06:06:54.576Z,2.82
2022-12-06T06:09:21.382Z,2.79
2022-12-06T06:11:47.909Z,2.85
2022-12-06T06:14:14.899Z,2.86
2022-12-06T06:16:41.597Z,2.81
2022-12-06T06:19:08.326Z,2.82
2022-12-06T06:21:34.897Z,2.89
2022-12-06T06:24:01.848Z,2.94
2022-12-06T06:26:28.974Z,2.97
2022-12-06T06:28:55.809Z,2.97
2022-12-06T06:31:22.440Z,2.92
2022-12-06T06:33:49.104Z,2.89
2022-12-06T06:36:15.792Z,2.89
2022-12-06T06:38:42.483Z,2.86
2022-12-06T06:41:09.175Z,2.83
2022-12-06T06:43:35.956Z,2.88
2022-12-06T06:46:06.962Z,2.74
2022-12-06T06:48:36.854Z,2.68
2022-12-06T06:51:08.708Z,2.76
2022-12-06T06:53:40.158Z,2.88
2022-12-06T06:56:07.591Z,2.78
2022-12-06T06:58:34.441Z,2.66
2022-12-06T07:01:03.231Z,2.65
2022-12-06T07:03:30.281Z,2.67
2022-12-06T07:05:59.659Z,2.75
2022-12-06T07:08:29.505Z,2.78
2022-12-06T07:10:56.467Z,2.68
2022-12-06T07:13:24.579Z,2.60
2022-12-06T07:15:51.701Z,2.58
2022-12-06T07:18:19.527Z,2.50
2022-12-06T07:20:47.645Z,2.61
2022-12-06T07:23:15.272Z,2.59
2022-12-06T07:25:41.991Z,2.59
2022-12-06T07:28:08.700Z,2.65
2022-12-06T07:30:35.524Z,2.68
2022-12-06T07:33:02.385Z,2.66
2022-12-06T07:35:48.392Z,2.57
2022-12-06T07:38:15.860Z,2.68
2022-12-06T07:43:47.872Z,2.70
2022-12-06T07:46:14.568Z,2.73
2022-12-06T07:48:41.169Z,2.74
2022-12-06T07:51:07.837Z,2.76
2022-12-06T07:53:34.620Z,2.83
2022-12-06T07:56:08.531Z,2.85
2022-12-06T07:58:35.398Z,2.89
2022-12-06T08:01:04.464Z,2.82
2022-12-06T08:03:31.731Z,2.84
2022-12-06T08:05:58.490Z,2.83
2022-12-06T08:08:28.789Z,2.76
2022-12-06T08:10:59.960Z,2.77
2022-12-06T08:13:27.063Z,2.91
2022-12-06T08:15:53.845Z,2.97
2022-12-06T08:18:21.061Z,2.91
2022-12-06T08:20:48.099Z,2.86
2022-12-06T08:23:14.863Z,2.86
2022-12-06T08:25:41.537Z,2.90
2022-12-06T08:28:08.188Z,2.82
2022-12-06T08:30:35.028Z,2.89
2022-12-06T08:33:01.838Z,2.98
2022-12-06T08:35:28.577Z,3.07
2022-12-06T08:37:55.294Z,3.19
2022-12-06T08:40:22.176Z,3.05
2022-12-06T08:42:56.399Z,3.07
2022-12-06T08:45:23.077Z,3.02
2022-12-06T08:47:49.675Z,3.05
2022-12-06T08:50:16.246Z,3.05
2022-12-06T08:52:42.930Z,3.09
2022-12-06T08:55:09.730Z,3.07
2022-12-06T08:57:36.404Z,2.96
2022-12-06T09:00:05.875Z,3.10
2022-12-06T09:02:32.474Z,3.11
2022-12-06T09:04:59.197Z,3.15
2022-12-06T09:07:26.602Z,3.14
2022-12-06T09:09:54.706Z,3.20
2022-12-06T09:12:21.889Z,3.19
2022-12-06T09:14:48.525Z,3.04
2022-12-06T09:17:15.305Z,3.05
2022-12-06T09:19:42.071Z,3.13
2022-12-06T09:22:08.722Z,3.18
2022-12-06T09:24:35.387Z,3.22
2022-12-06T09:27:02.068Z,3.16
2022-12-06T09:29:28.860Z,3.17
2022-12-06T09:31:55.556Z,3.17
2022-12-06T09:34:22.284Z,3.31
2022-12-06T09:37:08.097Z,3.41
2022-12-06T09:39:39.525Z,3.38
2022-12-06T09:42:12.121Z,3.41
2022-12-06T09:44:53.694Z,3.52
2022-12-06T09:47:32.368Z,3.58
2022-12-06T09:50:26.634Z,3.68
2022-12-06T09:53:21.354Z,3.68
2022-12-06T09:56:00.616Z,3.52
2022-12-06T09:58:51.871Z,3.41
2022-12-06T10:01:36.701Z,3.44
2022-12-06T10:04:29.374Z,3.47
2022-12-06T10:07:19.996Z,3.31
2022-12-06T10:10:03.334Z,3.34
2022-12-06T10:12:48.452Z,3.42
2022-12-06T10:15:46.399Z,3.35
2022-12-06T10:18:21.017Z,3.43
2022-12-06T10:21:24.567Z,3.55
2022-12-06T10:24:13.825Z,3.69
2022-12-06T10:26:51.883Z,3.61
2022-12-06T10:29:29.705Z,3.57
2022-12-06T10:32:05.999Z,3.36
2022-12-06T10:34:58.288Z,3.25
2022-12-06T10:37:59.905Z,3.28
2022-12-06T10:40:45.203Z,3.40
2022-12-06T10:43:25.433Z,3.46
2022-12-06T10:46:24.096Z,3.54
2022-12-06T10:49:09.169Z,3.66
2022-12-06T10:51:56.315Z,3.64
2022-12-06T10:54:33.648Z,3.61
2022-12-06T10:57:06.338Z,3.53
2022-12-06T10:59:54.476Z,3.52
2022-12-06T11:02:53.688Z,3.58
2022-12-06T11:05:30.568Z,3.76
2022-12-06T11:08:11.894Z,3.81
2022-12-06T11:10:42.040Z,3.79
2022-12-06T11:13:31.077Z,3.70
2022-12-06T11:16:05.846Z,3.70
2022-12-06T11:18:34.035Z,3.72
2022-12-06T11:21:03.710Z,3.52
2022-12-06T11:23:50.947Z,3.31
2022-12-06T11:26:41.813Z,3.37
2022-12-06T11:29:14.030Z,3.40
2022-12-06T11:31:50.807Z,3.46
2022-12-06T11:34:17.588Z,3.61
2022-12-06T11:36:45.268Z,3.54
2022-12-06T11:39:13.836Z,3.47
2022-12-06T11:41:43.508Z,3.45
2022-12-06T11:44:18.958Z,3.27
2022-12-06T11:46:50.320Z,3.27
2022-12-06T11:49:39.992Z,3.21
2022-12-06T11:52:12.842Z,3.08
2022-12-06T11:54:55.164Z,3.09
2022-12-06T11:57:50.598Z,3.03
2022-12-06T12:00:23.912Z,3.05
2022-12-06T12:02:53.761Z,3.20
2022-12-06T12:05:24.143Z,3.12
2022-12-06T12:08:00.000Z,3.08
2022-12-06T12:10:32.928Z,2.91
2022-12-06T12:13:45.531Z,2.88
2022-12-06T12:16:15.155Z,3.01
2022-12-06T12:18:49.877Z,2.88
2022-12-06T12:21:17.548Z,2.80
2022-12-06T12:23:46.840Z,2.87
2022-12-06T12:26:17.017Z,2.88
2022-12-06T12:28:46.053Z,2.89
2022-12-06T12:31:24.492Z,3.10
2022-12-06T12:34:25.809Z,3.21
2022-12-06T12:36:56.871Z,3.22
2022-12-06T12:39:45.351Z,3.16
2022-12-06T12:42:29.908Z,2.98
2022-12-06T12:45:00.110Z,2.85
2022-12-06T12:47:27.302Z,2.88
2022-12-06T12:50:02.039Z,2.97
2022-12-06T12:52:37.629Z,2.89
2022-12-06T12:55:13.475Z,2.80
2022-12-06T12:57:45.026Z,2.84
2022-12-06T13:00:37.302Z,2.82
2022-12-06T13:03:28.561Z,3.02
2022-12-06T13:06:00.082Z,2.98
2022-12-06T13:08:33.900Z,2.96
2022-12-06T13:11:03.366Z,2.96
2022-12-06T13:13:43.639Z,2.92
2022-12-06T13:16:18.361Z,2.88
2022-12-06T13:18:52.746Z,2.86
2022-12-06T13:21:31.889Z,2.85
2022-12-06T13:24:10.848Z,2.84
2022-12-06T13:26:43.236Z,2.87
2022-12-06T13:29:23.526Z,2.87
2022-12-06T13:31:53.665Z,2.91
2022-12-06T13:34:23.222Z,2.87
2022-12-06T13:36:52.268Z,2.85
2022-12-06T13:39:30.965Z,2.88
2022-12-06T13:42:18.349Z,2.80
2022-12-06T13:44:48.211Z,2.81
2022-12-06T13:47:27.119Z,2.85
2022-12-06T13:49:54.801Z,2.92
2022-12-06T13:52:43.276Z,2.96
2022-12-06T13:55:25.096Z,2.92
2022-12-06T13:58:04.024Z,2.91
2022-12-06T14:00:30.667Z,2.91
2022-12-06T14:02:59.442Z,2.85
2022-12-06T14:08:52.042Z,2.76
2022-12-06T14:11:33.947Z,2.80
2022-12-06T14:14:08.877Z,2.96
2022-12-06T14:16:56.981Z,2.90
2022-12-06T14:19:46.973Z,2.75
2022-12-06T14:22:28.539Z,2.82
2022-12-06T14:25:08.044Z,2.85
2022-12-06T14:27:49.176Z,2.86
2022-12-06T14:30:26.393Z,2.95
2022-12-06T14:32:58.635Z,3.01
2022-12-06T14:35:37.283Z,2.78
2022-12-06T14:38:25.231Z,2.71
2022-12-06T14:41:11.040Z,2.73
2022-12-06T14:43:39.724Z,2.73
2022-12-06T14:46:15.615Z,2.65
2022-12-06T14:49:02.486Z,2.74
2022-12-06T14:51:38.555Z,2.75
2022-12-06T14:54:18.163Z,2.73
2022-12-06T14:56:45.240Z,2.65
2022-12-06T14:59:12.762Z,2.55
2022-12-06T15:01:51.075Z,2.64
2022-12-06T15:04:26.587Z,2.60
2022-12-06T15:06:56.013Z,2.45
2022-12-06T15:09:23.005Z,2.40
2022-12-06T15:12:08.249Z,2.37
2022-12-06T15:14:35.606Z,2.36
2022-12-06T15:17:08.200Z,2.55
2022-12-06T15:19:38.882Z,2.55
2022-12-06T15:22:19.936Z,2.64
2022-12-06T15:24:51.872Z,2.45
2022-12-06T15:27:20.305Z,2.41
2022-12-06T15:29:47.348Z,2.52
2022-12-06T15:32:19.016Z,2.57
2022-12-06T15:34:45.947Z,2.67
2022-12-06T15:37:38.155Z,2.59
2022-12-06T15:40:02.137Z,2.37
2022-12-06T15:42:28.967Z,2.33
2022-12-06T15:44:55.912Z,2.39
2022-12-06T15:47:22.627Z,2.44
2022-12-06T15:49:51.798Z,2.45
2022-12-06T15:52:23.527Z,2.33
2022-12-06T15:54:50.733Z,2.36
2022-12-06T15:57:17.792Z,2.33
2022-12-06T15:59:44.497Z,2.44
2022-12-06T16:02:16.835Z,2.47
2022-12-06T16:04:44.583Z,2.41
2022-12-06T16:07:13.215Z,2.41
2022-12-06T16:09:44.102Z,2.51
2022-12-06T16:12:10.885Z,2.46
2022-12-06T16:14:37.630Z,2.52
2022-12-06T16:17:04.266Z,2.60
2022-12-06T16:19:50.947Z,2.59
2022-12-06T16:22:17.672Z,2.58
2022-12-06T16:24:46.194Z,2.60
2022-12-06T16:27:14.903Z,2.53
2022-12-06T16:29:41.542Z,2.52
2022-12-06T16:32:08.198Z,2.37
2022-12-06T16:34:34.847Z,2.26
2022-12-06T16:37:04.084Z,2.23
2022-12-06T16:39:33.646Z,2.28
2022-12-06T16:42:01.245Z,2.26
2022-12-06T16:44:27.911Z,2.42
2022-12-06T16:46:54.692Z,2.44
2022-12-06T16:52:10.762Z,2.46
2022-12-06T16:54:41.570Z,2.46
2022-12-06T16:57:10.131Z,2.50
2022-12-06T16:59:36.897Z,2.54
2022-12-06T17:02:08.507Z,2.51
2022-12-06T17:04:38.312Z,2.39
2022-12-06T17:07:05.037Z,2.48
2022-12-06T17:09:31.663Z,2.47
2022-12-06T17:12:12.667Z,2.56
2022-12-06T17:14:40.009Z,2.55
2022-12-06T17:17:06.591Z,2.48
2022-12-06T17:19:33.638Z,2.44
2022-12-06T17:22:06.181Z,2.32
2022-12-06T17:24:33.375Z,2.31
2022-12-06T17:27:00.023Z,2.48
2022-12-06T17:29:28.513Z,2.41
2022-12-06T17:31:56.322Z,2.43
2022-12-06T17:34:25.518Z,2.48
2022-12-06T17:36:52.642Z,2.51
2022-12-06T17:39:21.019Z,2.58
2022-12-06T17:42:06.387Z,2.46
2022-12-06T17:44:34.074Z,2.37
2022-12-06T17:47:01.522Z,2.33
2022-12-06T17:49:28.848Z,2.42
2022-12-06T17:51:55.850Z,2.36
2022-12-06T17:54:22.949Z,2.43
2022-12-06T17:56:53.992Z,2.46
2022-12-06T17:59:23.213Z,2.41
2022-12-06T18:02:13.992Z,2.36
2022-12-06T18:04:37.762Z,2.40
2022-12-06T18:07:04.304Z,2.34
2022-12-06T18:09:31.203Z,2.38
2022-12-06T18:11:57.969Z,2.40
2022-12-06T18:14:24.674Z,2.52
2022-12-06T18:16:51.399Z,2.59
2022-12-06T18:19:25.216Z,2.53
2022-12-06T18:21:52.293Z,2.44
2022-12-06T18:24:21.885Z,2.41
2022-12-06T18:26:50.148Z,2.46
2022-12-06T18:29:19.712Z,2.49
2022-12-06T18:31:46.771Z,2.44
2022-12-06T18:34:13.869Z,2.44
2022-12-06T18:36:40.927Z,2.35
2022-12-06T18:39:14.876Z,2.38
2022-12-06T18:41:45.213Z,2.36
2022-12-06T18:44:12.612Z,2.33
2022-12-06T18:46:41.519Z,2.44
2022-12-06T18:49:10.463Z,2.52
2022-12-06T18:51:38.589Z,2.53
2022-12-06T18:54:06.306Z,2.46
2022-12-06T18:56:34.133Z,2.42
2022-12-06T18:59:03.121Z,2.43
2022-12-06T19:01:32.566Z,2.44
2022-12-06T19:04:01.110Z,2.49
2022-12-06T19:06:31.536Z,2.55
2022-12-06T19:09:02.298Z,2.59
2022-12-06T19:11:29.034Z,2.62
2022-12-06T19:14:00.352Z,2.68
2022-12-06T19:16:37.832Z,2.67
2022-12-06T19:19:12.703Z,2.68
2022-12-06T19:21:43.979Z,2.73
2022-12-06T19:24:12.516Z,2.62
2022-12-06T19:26:39.216Z,2.56
2022-12-06T19:29:05.891Z,2.43
2022-12-06T19:31:33.226Z,2.57
2022-12-06T19:34:00.113Z,2.56
2022-12-06T19:36:28.879Z,2.57
2022-12-06T19:39:00.066Z,2.58
2022-12-06T19:41:27.468Z,2.58
2022-12-06T19:44:12.835Z,2.59
2022-12-06T19:46:42.818Z,2.59
2022-12-06T19:49:10.301Z,2.58
2022-12-06T19:51:42.344Z,2.55
2022-12-06T19:54:11.740Z,2.59
2022-12-06T19:56:39.276Z,2.65
2022-12-06T19:59:12.944Z,2.67
2022-12-06T20:01:41.824Z,2.64
2022-12-06T20:04:09.191Z,2.71
2022-12-06T20:06:36.611Z,2.73
2022-12-06T20:09:04.054Z,2.73
2022-12-06T20:11:49.415Z,2.70
2022-12-06T20:14:21.342Z,2.70
2022-12-06T20:16:48.305Z,2.67
2022-12-06T20:19:16.398Z,2.81
2022-12-06T20:21:46.742Z,2.78
2022-12-06T20:24:16.644Z,2.70
2022-12-06T20:26:43.242Z,2.66
2022-12-06T20:29:10.460Z,2.60
2022-12-06T20:31:37.212Z,2.72
2022-12-06T20:34:10.263Z,2.80
2022-12-06T20:36:41.668Z,2.82
2022-12-06T20:39:08.615Z,2.91
2022-12-06T20:41:35.254Z,3.06
2022-12-06T20:44:02.695Z,3.12
2022-12-06T20:46:31.206Z,3.16
2022-12-06T20:49:03.740Z,3.22
2022-12-06T20:51:31.418Z,3.13
2022-12-06T20:54:00.462Z,3.07
2022-12-06T20:56:30.306Z,3.05
2022-12-06T20:58:58.699Z,2.99
2022-12-06T21:01:27.953Z,3.01
2022-12-06T21:03:55.044Z,2.99
2022-12-06T21:06:24.045Z,2.98
2022-12-06T21:08:51.604Z,2.94
2022-12-06T21:11:23.805Z,3.01
2022-12-06T21:13:53.460Z,3.00
2022-12-06T21:16:28.582Z,3.03
2022-12-06T21:19:03.686Z,3.02
2022-12-06T21:21:35.514Z,2.95
2022-12-06T21:24:04.321Z,3.04
2022-12-06T21:26:31.036Z,3.00
2022-12-06T21:28:57.953Z,2.92
2022-12-06T21:31:36.065Z,2.91
2022-12-06T21:34:03.077Z,2.90
2022-12-06T21:36:30.007Z,2.89
2022-12-06T21:38:58.167Z,2.92
2022-12-06T21:41:25.491Z,2.91
2022-12-06T21:43:52.529Z,2.90
2022-12-06T21:46:22.955Z,2.83
2022-12-06T21:48:51.510Z,2.81
2022-12-06T21:51:18.908Z,2.86
2022-12-06T21:53:45.709Z,2.89
2022-12-06T21:56:15.545Z,2.79
2022-12-06T21:58:42.215Z,2.67
2022-12-06T22:01:11.313Z,2.62
2022-12-06T22:03:38.937Z,2.58
2022-12-06T22:06:07.870Z,2.53
2022-12-06T22:08:34.904Z,2.54
2022-12-06T22:11:06.338Z,2.55
2022-12-06T22:13:32.917Z,2.50
2022-12-06T22:16:06.869Z,2.46
2022-12-06T22:18:37.735Z,2.49
2022-12-06T22:21:22.409Z,2.53
2022-12-06T22:23:49.332Z,2.47
2022-12-06T22:26:18.785Z,2.48
2022-12-06T22:28:46.100Z,2.48
2022-12-06T22:31:19.048Z,2.54
2022-12-06T22:33:46.700Z,2.52
2022-12-06T22:36:14.204Z,2.53
2022-12-06T22:38:41.037Z,2.60
2022-12-06T22:41:08.783Z,2.59
2022-12-06T22:43:35.658Z,2.57
2022-12-06T22:46:14.393Z,2.57
2022-12-06T22:48:42.713Z,2.50
2022-12-06T22:51:14.420Z,2.44
2022-12-06T22:53:43.349Z,2.45
2022-12-06T22:56:10.340Z,2.37
2022-12-06T22:58:37.796Z,2.37
2022-12-06T23:01:16.512Z,2.20
2022-12-06T23:03:48.452Z,2.20
2022-12-06T23:06:17.320Z,2.14
2022-12-06T23:08:44.320Z,2.15
2022-12-06T23:11:13.762Z,2.11
2022-12-06T23:13:40.891Z,2.14
2022-12-06T23:16:12.349Z,2.15
2022-12-06T23:18:39.079Z,2.18
2022-12-06T23:21:20.360Z,2.08
2022-12-06T23:23:49.654Z,2.07
2022-12-06T23:26:18.956Z,2.02
2022-12-06T23:28:46.399Z,2.03
2022-12-06T23:31:17.422Z,2.05
2022-12-06T23:33:46.141Z,2.10
2022-12-06T23:36:21.429Z,2.12
2022-12-06T23:38:48.566Z,2.13
2022-12-06T23:41:17.940Z,2.14
2022-12-06T23:43:45.280Z,2.13
2022-12-06T23:46:20.600Z,2.13
2022-12-06T23:48:48.731Z,2.13
2022-12-06T23:51:18.958Z,2.14
2022-12-06T23:53:50.331Z,2.17
2022-12-06T23:56:18.603Z,2.21
2022-12-06T23:58:45.957Z,2.28
